createdAt,value
2019-02-22T00:02:12.273Z,0
2019-02-22T00:03:04.654Z,0
2019-02-22T00:03:45.967Z,0
2019-02-22T00:04:26.812Z,0
2019-02-22T00:05:07.338Z,0
2019-02-22T00:05:47.608Z,0
2019-02-22T00:06:29.342Z,0
2019-02-22T00:07:10.118Z,0
2019-02-22T00:07:50.828Z,0
2019-02-22T00:08:32.007Z,0
2019-02-22T00:09:12.354Z,0
2019-02-22T00:09:53.051Z,0
2019-02-22T00:10:33.837Z,0
2019-02-22T00:11:14.233Z,0
2019-02-22T00:11:54.781Z,0
2019-02-22T00:12:35.882Z,0
2019-02-22T00:13:17.639Z,0
2019-02-22T00:13:57.771Z,0
2019-02-22T00:14:38.607Z,0
2019-02-22T00:15:19.627Z,0
2019-02-22T00:16:00.622Z,0
2019-02-22T00:16:42.294Z,0
2019-02-22T00:17:23.147Z,0
2019-02-22T00:18:03.490Z,0
2019-02-22T00:18:44.567Z,0
2019-02-22T00:19:25.402Z,0
2019-02-22T00:20:06.007Z,0
2019-02-22T00:20:46.353Z,0
2019-02-22T00:21:27.379Z,0
2019-02-22T00:22:07.901Z,0
2019-02-22T00:22:49.752Z,0
2019-02-22T00:23:30.022Z,0
2019-02-22T00:24:11.063Z,0
2019-02-22T00:24:51.808Z,0
2019-02-22T00:25:32.112Z,0
2019-02-22T00:26:12.725Z,0
2019-02-22T00:26:53.295Z,0
2019-02-22T00:27:34.482Z,0
2019-02-22T00:28:14.754Z,0
2019-02-22T00:28:55.159Z,0
2019-02-22T00:29:35.688Z,0
2019-02-22T00:30:16.521Z,0
2019-02-22T00:30:57.037Z,0
2019-02-22T00:31:37.620Z,0
2019-02-22T00:32:18.654Z,0
2019-02-22T00:32:59.653Z,0
2019-02-22T00:33:40.634Z,0
2019-02-22T00:34:21.228Z,0
2019-02-22T00:35:01.809Z,0
2019-02-22T00:35:43.226Z,0
2019-02-22T00:36:23.704Z,0
2019-02-22T00:37:04.034Z,0
2019-02-22T00:37:45.248Z,0
2019-02-22T00:38:27.109Z,0
2019-02-22T00:41:02.041Z,0
2019-02-22T00:41:51.376Z,0
2019-02-22T00:42:43.344Z,0
2019-02-22T00:45:04.854Z,0
2019-02-22T00:45:42.478Z,0
2019-02-22T00:46:22.820Z,0
2019-02-22T00:47:03.228Z,0
2019-02-22T00:47:49.572Z,0
2019-02-22T00:48:29.961Z,0
2019-02-22T00:49:10.446Z,0
2019-02-22T00:49:50.881Z,0
2019-02-22T00:50:35.109Z,0
2019-02-22T00:51:15.396Z,0
2019-02-22T00:51:56.771Z,0
2019-02-22T00:52:37.038Z,0
2019-02-22T00:53:25.503Z,0
2019-02-22T00:54:05.848Z,0
2019-02-22T00:54:46.234Z,0
2019-02-22T00:55:26.753Z,0
2019-02-22T00:56:06.998Z,0
2019-02-22T00:56:47.406Z,0
2019-02-22T00:57:27.772Z,0
2019-02-22T00:58:08.207Z,0
2019-02-22T00:58:48.663Z,0
2019-02-22T00:59:28.980Z,0
2019-02-22T01:00:09.390Z,0
2019-02-22T01:00:49.749Z,0
2019-02-22T01:01:30.217Z,0
2019-02-22T01:02:10.534Z,0
2019-02-22T01:02:52.552Z,0
2019-02-22T01:03:32.678Z,0
2019-02-22T01:04:13.102Z,0
2019-02-22T01:04:53.487Z,0
2019-02-22T01:05:33.840Z,0
2019-02-22T01:06:15.454Z,0
2019-02-22T01:06:55.785Z,0
2019-02-22T01:07:36.156Z,0
2019-02-22T01:08:16.597Z,0
2019-02-22T01:08:57.916Z,0
2019-02-22T01:09:38.289Z,0
2019-02-22T01:10:18.696Z,0
2019-02-22T01:10:59.141Z,0
2019-02-22T01:11:39.497Z,0
2019-02-22T01:12:19.897Z,0
2019-02-22T01:13:00.299Z,0
2019-02-22T01:13:40.733Z,0
2019-02-22T01:14:21.143Z,0
2019-02-22T01:15:02.657Z,0
2019-02-22T01:15:43.241Z,0
2019-02-22T01:16:23.614Z,0
2019-02-22T01:17:04.048Z,0
2019-02-22T01:17:44.341Z,0
2019-02-22T01:18:24.794Z,0
2019-02-22T01:19:05.200Z,0
2019-02-22T01:19:45.609Z,0
2019-02-22T01:20:26.003Z,0
2019-02-22T01:21:06.512Z,0
2019-02-22T01:21:46.878Z,0
2019-02-22T01:22:27.271Z,0
2019-02-22T01:23:07.697Z,0
2019-02-22T01:23:48.049Z,0
2019-02-22T01:24:28.437Z,0
2019-02-22T01:25:08.839Z,0
2019-02-22T01:25:49.227Z,0
2019-02-22T01:26:29.780Z,0
2019-02-22T01:27:09.994Z,0
2019-02-22T01:27:50.402Z,0
2019-02-22T01:28:30.945Z,0
2019-02-22T01:29:11.204Z,0
2019-02-22T01:29:53.473Z,0
2019-02-22T01:30:33.928Z,0
2019-02-22T01:31:14.296Z,0
2019-02-22T01:31:54.721Z,0
2019-02-22T01:32:35.030Z,0
2019-02-22T01:33:15.455Z,0
2019-02-22T01:33:55.824Z,0
2019-02-22T01:34:36.231Z,0
2019-02-22T01:35:16.706Z,0
2019-02-22T01:35:57.052Z,0
2019-02-22T01:36:37.481Z,0
2019-02-22T01:37:17.822Z,0
2019-02-22T01:37:58.241Z,0
2019-02-22T01:38:38.634Z,0
2019-02-22T01:39:19.316Z,0
2019-02-22T01:39:59.646Z,0
2019-02-22T01:40:43.361Z,0
2019-02-22T01:41:20.464Z,0
2019-02-22T01:42:01.014Z,0
2019-02-22T01:42:41.326Z,0
2019-02-22T01:43:21.685Z,0
2019-02-22T01:44:04.600Z,0
2019-02-22T01:44:45.008Z,0
2019-02-22T01:45:25.756Z,0
2019-02-22T01:46:06.151Z,0
2019-02-22T01:46:46.885Z,0
2019-02-22T01:47:28.934Z,0
2019-02-22T01:48:09.285Z,0
2019-02-22T01:48:53.200Z,0
2019-02-22T01:49:33.511Z,0
2019-02-22T01:50:13.941Z,0
2019-02-22T01:50:54.251Z,0
2019-02-22T01:51:34.613Z,0
2019-02-22T01:52:15.048Z,0
2019-02-22T01:52:55.488Z,0
2019-02-22T01:53:35.894Z,0
2019-02-22T01:54:16.308Z,0
2019-02-22T01:54:56.690Z,0
2019-02-22T01:55:37.193Z,0
2019-02-22T01:56:17.475Z,0
2019-02-22T01:56:57.846Z,0
2019-02-22T01:57:38.291Z,0
2019-02-22T01:58:18.638Z,0
2019-02-22T01:58:59.079Z,0
2019-02-22T01:59:39.511Z,0
2019-02-22T02:00:19.813Z,0
2019-02-22T02:01:00.229Z,0
2019-02-22T02:01:40.567Z,0
2019-02-22T02:02:21.079Z,0
2019-02-22T02:03:01.548Z,0
2019-02-22T02:03:41.847Z,0
2019-02-22T02:04:24.099Z,0
2019-02-22T02:05:06.325Z,0
2019-02-22T02:08:02.308Z,0
2019-02-22T02:08:58.647Z,0
2019-02-22T02:09:46.167Z,0
2019-02-22T02:10:35.061Z,0
2019-02-22T02:11:25.065Z,0
2019-02-22T02:12:18.149Z,0
2019-02-22T02:18:38.344Z,0
2019-02-22T02:21:09.443Z,0
2019-02-22T02:25:47.737Z,0
2019-02-22T02:26:36.162Z,0
2019-02-22T02:27:26.452Z,0
2019-02-22T02:28:18.906Z,0
2019-02-22T02:29:06.969Z,0
2019-02-22T02:29:55.800Z,0
2019-02-22T02:30:44.429Z,0
2019-02-22T02:31:33.727Z,0
2019-02-22T02:32:23.813Z,0
2019-02-22T02:33:12.963Z,0
2019-02-22T02:34:01.171Z,0
2019-02-22T02:34:53.021Z,0
2019-02-22T02:35:41.954Z,0
2019-02-22T02:36:30.257Z,0
2019-02-22T02:37:19.838Z,0
2019-02-22T02:38:07.682Z,0
2019-02-22T02:41:08.343Z,0
2019-02-22T02:44:00.744Z,0
2019-02-22T02:44:48.508Z,0
2019-02-22T02:45:43.585Z,0
2019-02-22T02:56:29.148Z,0
2019-02-22T02:57:31.175Z,0
2019-02-22T02:58:25.090Z,0
2019-02-22T03:06:55.594Z,0
2019-02-22T03:07:35.714Z,0
2019-02-22T03:08:16.115Z,0
2019-02-22T03:08:56.512Z,0
2019-02-22T03:09:36.916Z,0
2019-02-22T03:10:19.131Z,0
2019-02-22T03:10:59.495Z,0
2019-02-22T03:11:39.914Z,0
2019-02-22T03:12:20.261Z,0
2019-02-22T03:13:00.703Z,0
2019-02-22T03:13:41.064Z,0
2019-02-22T03:14:21.473Z,0
2019-02-22T03:15:01.886Z,0
2019-02-22T03:15:42.219Z,0
2019-02-22T03:16:22.750Z,0
2019-02-22T03:17:03.022Z,0
2019-02-22T03:17:43.503Z,0
2019-02-22T03:18:25.813Z,0
2019-02-22T03:19:06.180Z,0
2019-02-22T03:19:46.520Z,0
2019-02-22T03:20:26.964Z,0
2019-02-22T03:21:07.272Z,0
2019-02-22T03:21:47.664Z,0
2019-02-22T03:22:28.423Z,0
2019-02-22T03:23:08.655Z,0
2019-02-22T03:23:49.065Z,0
2019-02-22T03:24:29.422Z,0
2019-02-22T03:25:10.027Z,0
2019-02-22T03:25:50.286Z,0
2019-02-22T03:26:30.655Z,0
2019-02-22T03:27:11.132Z,0
2019-02-22T03:27:51.471Z,0
2019-02-22T03:28:31.865Z,0
2019-02-22T03:29:12.338Z,0
2019-02-22T03:29:52.611Z,0
2019-02-22T03:30:33.068Z,0
2019-02-22T03:31:13.515Z,0
2019-02-22T03:31:53.868Z,0
2019-02-22T03:32:34.314Z,0
2019-02-22T03:33:14.753Z,0
2019-02-22T03:33:55.116Z,0
2019-02-22T03:34:35.564Z,0
2019-02-22T03:35:15.951Z,0
2019-02-22T03:35:56.454Z,0
2019-02-22T03:36:36.838Z,0
2019-02-22T03:37:21.028Z,0
2019-02-22T03:38:02.201Z,0
2019-02-22T03:38:42.580Z,0
2019-02-22T03:39:23.097Z,0
2019-02-22T03:40:03.436Z,0
2019-02-22T03:40:43.840Z,0
2019-02-22T03:41:32.560Z,0
2019-02-22T03:42:06.018Z,0
2019-02-22T03:42:46.434Z,0
2019-02-22T03:43:26.765Z,0
2019-02-22T03:44:07.271Z,0
2019-02-22T03:44:47.690Z,0
2019-02-22T03:45:28.380Z,0
2019-02-22T03:48:42.813Z,0
2019-02-22T03:49:37.595Z,0
2019-02-22T03:55:18.890Z,0
2019-02-22T04:07:30.367Z,0
2019-02-22T04:08:14.123Z,0
2019-02-22T04:24:32.282Z,0
2019-02-22T05:06:11.705Z,0
2019-02-22T05:11:07.738Z,0
2019-02-22T05:11:56.763Z,0
2019-02-22T05:14:35.286Z,0
2019-02-22T05:17:04.972Z,0
2019-02-22T05:17:45.362Z,0
2019-02-22T05:18:25.941Z,0
2019-02-22T05:19:06.241Z,0
2019-02-22T05:19:46.724Z,0
2019-02-22T05:20:29.021Z,0
2019-02-22T05:21:09.530Z,0
2019-02-22T05:21:50.211Z,0
2019-02-22T05:35:28.134Z,0
2019-02-22T05:36:18.504Z,0
2019-02-22T05:36:59.185Z,0
2019-02-22T05:37:39.809Z,0
2019-02-22T05:38:20.341Z,0
2019-02-22T05:39:00.925Z,0
2019-02-22T05:39:42.248Z,0
2019-02-22T05:40:22.722Z,0
2019-02-22T05:41:03.283Z,0
2019-02-22T05:41:43.662Z,0
2019-02-22T05:42:28.583Z,0
2019-02-22T05:43:07.354Z,0
2019-02-22T05:43:47.664Z,0
2019-02-22T05:44:30.051Z,0
2019-02-22T05:45:10.511Z,0
2019-02-22T05:45:50.904Z,0
2019-02-22T05:46:31.619Z,0
2019-02-22T05:47:13.820Z,0
2019-02-22T05:48:03.947Z,0
2019-02-22T05:48:44.381Z,0
2019-02-22T05:49:27.296Z,0
2019-02-22T05:50:08.960Z,0
2019-02-22T05:50:51.248Z,0
2019-02-22T05:51:47.278Z,0
2019-02-22T05:52:30.104Z,0
2019-02-22T05:53:13.072Z,0
2019-02-22T05:53:57.410Z,0
2019-02-22T06:13:11.306Z,0
2019-02-22T06:13:51.751Z,0
2019-02-22T06:14:32.930Z,0
2019-02-22T06:31:00.950Z,0
2019-02-22T06:31:41.457Z,0
2019-02-22T06:32:23.591Z,0
2019-02-22T06:33:05.483Z,0
2019-02-22T06:34:45.785Z,0
2019-02-22T06:35:26.835Z,0
2019-02-22T06:36:12.016Z,0
2019-02-22T07:45:01.878Z,0
2019-02-22T07:45:45.451Z,0
2019-02-22T07:46:31.734Z,0
2019-02-22T07:47:18.959Z,0
2019-02-22T07:48:00.684Z,5
2019-02-22T07:48:50.874Z,5
2019-02-22T07:50:19.493Z,0
2019-02-22T07:51:00.163Z,0
2019-02-22T07:51:43.603Z,5
2019-02-22T07:52:31.159Z,5
2019-02-22T07:53:13.619Z,5
2019-02-22T07:53:57.283Z,5
2019-02-22T07:54:41.275Z,5
2019-02-22T07:55:22.286Z,5
2019-02-22T07:56:11.061Z,5
2019-02-22T08:34:17.433Z,5
2019-02-22T08:35:04.075Z,5
2019-02-22T08:35:53.274Z,5
2019-02-22T08:36:59.441Z,5
2019-02-22T08:37:59.593Z,5
2019-02-22T08:38:42.128Z,5
2019-02-22T08:39:29.089Z,5
2019-02-22T08:40:12.856Z,5
2019-02-22T08:40:57.634Z,5
2019-02-22T08:42:05.828Z,5
2019-02-22T08:42:54.978Z,5
2019-02-22T08:43:37.563Z,5
2019-02-22T08:44:23.331Z,5
2019-02-22T08:45:11.583Z,5
2019-02-22T08:45:54.822Z,5
2019-02-22T08:46:44.862Z,5
2019-02-22T08:49:38.318Z,5
2019-02-22T08:50:21.653Z,5
2019-02-22T08:59:51.908Z,5
2019-02-22T09:00:48.086Z,5
2019-02-22T09:01:46.680Z,5
2019-02-22T09:02:43.314Z,5
2019-02-22T09:03:49.656Z,5
2019-02-22T09:04:48.766Z,5
2019-02-22T09:14:40.415Z,5
2019-02-22T09:15:38.640Z,5
2019-02-22T09:17:02.701Z,5
2019-02-22T09:20:32.355Z,5
2019-02-22T09:27:15.489Z,5
2019-02-22T09:34:35.087Z,5
2019-02-22T09:37:38.587Z,5
2019-02-22T09:44:58.695Z,10
2019-02-22T09:46:06.566Z,10
2019-02-22T09:48:36.295Z,10
2019-02-22T09:49:32.241Z,10
2019-02-22T09:50:28.413Z,10
2019-02-22T09:51:21.226Z,10
2019-02-22T09:52:18.213Z,10
2019-02-22T09:57:23.077Z,15
2019-02-22T09:58:18.321Z,15
2019-02-22T09:59:12.824Z,15
2019-02-22T10:00:09.133Z,15
2019-02-22T10:01:05.417Z,15
2019-02-22T10:02:00.973Z,15
2019-02-22T10:02:55.759Z,15
2019-02-22T10:03:52.883Z,15
2019-02-22T10:11:33.203Z,15
2019-02-22T10:12:27.109Z,10
2019-02-22T10:13:21.275Z,10
2019-02-22T10:14:14.555Z,15
2019-02-22T10:15:08.281Z,15
2019-02-22T10:16:03.873Z,15
2019-02-22T10:16:57.777Z,15
2019-02-22T10:18:25.919Z,15
2019-02-22T10:19:21.166Z,15
2019-02-22T10:20:29.350Z,15
2019-02-22T10:21:23.880Z,20
2019-02-22T10:22:21.102Z,25
2019-02-22T10:23:33.051Z,30
2019-02-22T10:29:31.610Z,25
2019-02-22T11:14:58.228Z,45
2019-02-22T11:15:59.028Z,45
2019-02-22T11:16:53.332Z,45
2019-02-22T11:21:49.666Z,45
2019-02-22T11:22:47.024Z,45
2019-02-22T11:23:45.169Z,45
2019-02-22T11:24:40.519Z,50
2019-02-22T11:25:35.712Z,45
2019-02-22T11:26:31.824Z,50
2019-02-22T11:27:46.109Z,50
2019-02-22T11:28:45.627Z,45
2019-02-22T11:29:59.004Z,50
2019-02-22T11:31:05.810Z,45
2019-02-22T11:32:07.421Z,45
2019-02-22T11:33:08.716Z,45
2019-02-22T11:34:07.226Z,45
2019-02-22T11:35:07.089Z,40
2019-02-22T11:36:06.727Z,40
2019-02-22T11:37:08.797Z,35
2019-02-22T11:38:12.062Z,35
2019-02-22T11:39:14.579Z,35
2019-02-22T11:48:54.631Z,50
2019-02-22T12:14:38.995Z,40
2019-02-22T12:15:31.726Z,35
2019-02-22T13:07:29.297Z,50
2019-02-22T13:08:09.717Z,50
2019-02-22T13:08:50.179Z,50
2019-02-22T13:09:36.828Z,50
2019-02-22T13:10:17.424Z,45
2019-02-22T13:16:38.204Z,30
2019-02-22T13:28:10.065Z,20
2019-02-22T13:28:52.373Z,20
2019-02-22T13:29:36.696Z,20
2019-02-22T13:30:17.146Z,20
2019-02-22T13:31:01.503Z,20
2019-02-22T13:31:47.055Z,20
2019-02-22T13:32:28.479Z,20
2019-02-22T13:33:10.605Z,20
2019-02-22T13:33:51.025Z,20
2019-02-22T13:34:44.861Z,20
2019-02-22T13:35:25.326Z,20
2019-02-22T13:36:05.734Z,20
2019-02-22T13:36:48.294Z,20
2019-02-22T13:37:28.769Z,20
2019-02-22T13:38:20.137Z,20
2019-02-22T13:39:00.598Z,20
2019-02-22T13:39:44.000Z,20
2019-02-22T13:43:40.004Z,25
2019-02-22T13:44:21.028Z,25
2019-02-22T13:45:04.452Z,25
2019-02-22T13:45:45.967Z,20
2019-02-22T13:46:26.673Z,20
2019-02-22T13:47:06.699Z,20
2019-02-22T13:47:47.256Z,25
2019-02-22T13:48:27.781Z,25
2019-02-22T14:16:26.891Z,25
2019-02-22T14:17:09.382Z,25
2019-02-22T14:17:51.650Z,25
2019-02-22T14:18:36.002Z,25
2019-02-22T14:19:17.361Z,25
2019-02-22T14:20:15.670Z,25
2019-02-22T14:20:58.957Z,25
2019-02-22T14:21:40.251Z,25
2019-02-22T14:22:22.202Z,25
2019-02-22T14:23:03.923Z,25
2019-02-22T14:23:44.508Z,25
2019-02-22T14:24:29.350Z,25
2019-02-22T14:25:09.532Z,25
2019-02-22T14:25:49.954Z,25
2019-02-22T14:26:30.282Z,25
2019-02-22T14:27:10.910Z,25
2019-02-22T14:28:03.428Z,25
2019-02-22T14:28:48.310Z,20
2019-02-22T14:29:28.610Z,20
2019-02-22T14:56:31.675Z,30
2019-02-22T14:57:12.992Z,30
2019-02-22T14:57:53.638Z,30
2019-02-22T14:58:34.970Z,25
2019-02-22T23:08:24.916Z,0
2019-02-22T23:10:15.374Z,0
2019-02-22T23:11:07.177Z,0
2019-02-22T23:11:56.006Z,0
2019-02-22T23:16:28.951Z,0
2019-02-22T23:34:28.018Z,0
2019-02-22T23:35:21.413Z,0
2019-02-22T23:36:11.915Z,0
2019-02-22T23:37:04.123Z,0
2019-02-22T23:37:55.312Z,0
2019-02-22T23:38:52.726Z,0
2019-02-22T23:53:30.585Z,0
